Sandringham, United Kingdom
Current Conditions -  °F | °C
As of 5:50 PM on Thursday 23 Oct 2014 (Local Time) from EGYM Reporting Station
Broken Clouds Broken Clouds  
Wind Chill: 15°   Ceiling: 3200
Heat Index: 15°   Visibility: 6mi
Dew Point: 11°   Wind: 14mph
Humidity: 77%   Direction: 210°SSW
Pressure: 29.97"   Gusts: NA
Location:  52.82°N, 0.5°E
Report Text: EGYM 231650Z 21012KT 9999 FEW016 BKN032 15/11 Q1015 BLU BECMG SCT024 WHT
Loading
Personal Weather Stations






























Interactive Weather Map
Tropical Storm Tracking
New forecast layout! Learn more

10-Day Weather Forecast

Advertisements
Track Severe Weather on mobile